sensor_id;sensor_type;location;lat;lon;timestamp;P1;durP1;ratioP1;P2;durP2;ratioP2
6173;SDS011;3120;48.796;9.796;2024-02-26T06:25:09;10.48;;;4.55;;
6173;SDS011;3120;48.796;9.796;2024-02-26T06:27:35;19.55;;;6.47;;
6173;SDS011;3120;48.796;9.796;2024-02-26T06:30:01;7.78;;;3.05;;
6173;SDS011;3120;48.796;9.796;2024-02-26T06:32:26;6.57;;;3.42;;
6173;SDS011;3120;48.796;9.796;2024-02-26T06:34:54;5.97;;;3.90;;
6173;SDS011;3120;48.796;9.796;2024-02-26T06:37:20;14.32;;;6.65;;
6173;SDS011;3120;48.796;9.796;2024-02-26T06:39:45;20.35;;;7.63;;
6173;SDS011;3120;48.796;9.796;2024-02-26T06:42:11;24.30;;;8.75;;
6173;SDS011;3120;48.796;9.796;2024-02-26T06:44:37;21.48;;;9.70;;
6173;SDS011;3120;48.796;9.796;2024-02-26T06:47:02;22.15;;;10.20;;
6173;SDS011;3120;48.796;9.796;2024-02-26T06:49:28;17.98;;;8.95;;
6173;SDS011;3120;48.796;9.796;2024-02-26T06:51:54;22.77;;;10.77;;
6173;SDS011;3120;48.796;9.796;2024-02-26T06:54:20;16.08;;;6.28;;
6173;SDS011;3120;48.796;9.796;2024-02-26T06:56:46;12.48;;;5.95;;
6173;SDS011;3120;48.796;9.796;2024-02-26T06:59:11;11.25;;;5.13;;
6173;SDS011;3120;48.796;9.796;2024-02-26T07:01:37;11.57;;;4.85;;
6173;SDS011;3120;48.796;9.796;2024-02-26T07:04:05;9.68;;;4.40;;
6173;SDS011;3120;48.796;9.796;2024-02-26T07:06:31;10.48;;;4.60;;
6173;SDS011;3120;48.796;9.796;2024-02-26T07:08:56;7.43;;;3.70;;
6173;SDS011;3120;48.796;9.796;2024-02-26T07:11:22;18.75;;;6.70;;
6173;SDS011;3120;48.796;9.796;2024-02-26T07:13:47;12.38;;;5.72;;
6173;SDS011;3120;48.796;9.796;2024-02-26T07:16:14;11.63;;;4.18;;
6173;SDS011;3120;48.796;9.796;2024-02-26T07:18:40;7.13;;;3.97;;
6173;SDS011;3120;48.796;9.796;2024-02-26T07:21:06;12.90;;;5.35;;
6173;SDS011;3120;48.796;9.796;2024-02-26T07:23:31;7.13;;;4.40;;
6173;SDS011;3120;48.796;9.796;2024-02-26T07:25:57;8.20;;;3.80;;
6173;SDS011;3120;48.796;9.796;2024-02-26T07:28:24;10.07;;;4.57;;
6173;SDS011;3120;48.796;9.796;2024-02-26T07:30:49;12.40;;;4.72;;
6173;SDS011;3120;48.796;9.796;2024-02-26T07:33:15;9.05;;;3.42;;
6173;SDS011;3120;48.796;9.796;2024-02-26T07:35:41;7.30;;;4.07;;
6173;SDS011;3120;48.796;9.796;2024-02-26T07:38:06;14.68;;;4.85;;
6173;SDS011;3120;48.796;9.796;2024-02-26T07:40:32;9.82;;;4.78;;
6173;SDS011;3120;48.796;9.796;2024-02-26T07:42:57;7.97;;;3.67;;
6173;SDS011;3120;48.796;9.796;2024-02-26T07:45:23;16.77;;;4.20;;
6173;SDS011;3120;48.796;9.796;2024-02-26T07:47:48;8.82;;;3.63;;
6173;SDS011;3120;48.796;9.796;2024-02-26T07:50:16;8.68;;;3.78;;
6173;SDS011;3120;48.796;9.796;2024-02-26T07:52:41;9.38;;;3.30;;
6173;SDS011;3120;48.796;9.796;2024-02-26T07:55:07;11.48;;;3.85;;
6173;SDS011;3120;48.796;9.796;2024-02-26T07:57:33;11.65;;;4.70;;
6173;SDS011;3120;48.796;9.796;2024-02-26T07:59:58;9.02;;;4.38;;
6173;SDS011;3120;48.796;9.796;2024-02-26T08:02:24;8.52;;;3.88;;
6173;SDS011;3120;48.796;9.796;2024-02-26T08:04:50;10.65;;;4.70;;
6173;SDS011;3120;48.796;9.796;2024-02-26T08:07:16;11.52;;;5.32;;
6173;SDS011;3120;48.796;9.796;2024-02-26T08:09:41;12.80;;;4.97;;
6173;SDS011;3120;48.796;9.796;2024-02-26T08:12:07;14.57;;;5.00;;
6173;SDS011;3120;48.796;9.796;2024-02-26T08:14:33;12.02;;;3.85;;
6173;SDS011;3120;48.796;9.796;2024-02-26T08:16:59;10.35;;;3.65;;
6173;SDS011;3120;48.796;9.796;2024-02-26T08:19:24;7.25;;;4.00;;
6173;SDS011;3120;48.796;9.796;2024-02-26T08:21:51;6.45;;;3.60;;
6173;SDS011;3120;48.796;9.796;2024-02-26T08:24:16;11.63;;;3.83;;
6173;SDS011;3120;48.796;9.796;2024-02-26T08:26:42;10.27;;;3.95;;
6173;SDS011;3120;48.796;9.796;2024-02-26T08:29:08;13.98;;;3.60;;
6173;SDS011;3120;48.796;9.796;2024-02-26T08:31:33;8.80;;;3.72;;
6173;SDS011;3120;48.796;9.796;2024-02-26T08:34:02;8.75;;;4.13;;
6173;SDS011;3120;48.796;9.796;2024-02-26T08:36:33;6.00;;;3.28;;
6173;SDS011;3120;48.796;9.796;2024-02-26T08:38:59;6.90;;;3.67;;
6173;SDS011;3120;48.796;9.796;2024-02-26T08:41:24;11.63;;;4.15;;
6173;SDS011;3120;48.796;9.796;2024-02-26T08:43:50;7.38;;;3.78;;
6173;SDS011;3120;48.796;9.796;2024-02-26T08:46:15;8.77;;;3.65;;
6173;SDS011;3120;48.796;9.796;2024-02-26T08:48:41;6.88;;;3.58;;
6173;SDS011;3120;48.796;9.796;2024-02-26T08:51:07;8.73;;;4.30;;
6173;SDS011;3120;48.796;9.796;2024-02-26T08:53:33;7.22;;;3.67;;
6173;SDS011;3120;48.796;9.796;2024-02-26T08:55:59;14.05;;;3.85;;
6173;SDS011;3120;48.796;9.796;2024-02-26T08:58:25;8.07;;;4.18;;
6173;SDS011;3120;48.796;9.796;2024-02-26T09:00:52;23.50;;;12.27;;
6173;SDS011;3120;48.796;9.796;2024-02-26T09:03:20;18.85;;;7.70;;
6173;SDS011;3120;48.796;9.796;2024-02-26T09:05:46;7.88;;;4.35;;
6173;SDS011;3120;48.796;9.796;2024-02-26T09:08:12;7.18;;;4.30;;
6173;SDS011;3120;48.796;9.796;2024-02-26T09:10:38;15.75;;;8.02;;
6173;SDS011;3120;48.796;9.796;2024-02-26T09:13:04;16.60;;;7.70;;
6173;SDS011;3120;48.796;9.796;2024-02-26T09:15:29;16.70;;;8.95;;
6173;SDS011;3120;48.796;9.796;2024-02-26T09:17:55;10.13;;;4.90;;
6173;SDS011;3120;48.796;9.796;2024-02-26T09:20:21;13.93;;;5.05;;
6173;SDS011;3120;48.796;9.796;2024-02-26T09:22:47;9.70;;;5.03;;
6173;SDS011;3120;48.796;9.796;2024-02-26T09:25:13;9.15;;;5.10;;
6173;SDS011;3120;48.796;9.796;2024-02-26T09:27:40;11.68;;;4.35;;
6173;SDS011;3120;48.796;9.796;2024-02-26T09:30:07;8.93;;;4.28;;
6173;SDS011;3120;48.796;9.796;2024-02-26T09:32:33;7.90;;;4.32;;
6173;SDS011;3120;48.796;9.796;2024-02-26T09:34:58;7.88;;;4.30;;
6173;SDS011;3120;48.796;9.796;2024-02-26T09:37:24;9.77;;;5.93;;
6173;SDS011;3120;48.796;9.796;2024-02-26T09:39:50;12.02;;;4.88;;
6173;SDS011;3120;48.796;9.796;2024-02-26T09:42:16;13.35;;;6.57;;
6173;SDS011;3120;48.796;9.796;2024-02-26T09:44:44;8.70;;;4.57;;
6173;SDS011;3120;48.796;9.796;2024-02-26T09:47:11;9.40;;;4.63;;
6173;SDS011;3120;48.796;9.796;2024-02-26T09:49:40;8.23;;;5.13;;
6173;SDS011;3120;48.796;9.796;2024-02-26T09:52:08;11.75;;;7.28;;
6173;SDS011;3120;48.796;9.796;2024-02-26T09:54:36;8.85;;;4.80;;
6173;SDS011;3120;48.796;9.796;2024-02-26T09:57:04;19.65;;;7.63;;
6173;SDS011;3120;48.796;9.796;2024-02-26T09:59:39;20.08;;;10.82;;
6173;SDS011;3120;48.796;9.796;2024-02-26T10:02:08;9.55;;;5.28;;
6173;SDS011;3120;48.796;9.796;2024-02-26T10:04:36;5.53;;;3.72;;
6173;SDS011;3120;48.796;9.796;2024-02-26T10:07:04;8.65;;;4.28;;
6173;SDS011;3120;48.796;9.796;2024-02-26T10:09:35;8.70;;;4.80;;
6173;SDS011;3120;48.796;9.796;2024-02-26T10:12:01;7.00;;;3.50;;
6173;SDS011;3120;48.796;9.796;2024-02-26T10:14:27;7.82;;;3.78;;
6173;SDS011;3120;48.796;9.796;2024-02-26T10:16:53;25.73;;;3.75;;
6173;SDS011;3120;48.796;9.796;2024-02-26T10:19:25;6.30;;;3.80;;
6173;SDS011;3120;48.796;9.796;2024-02-26T10:21:58;13.55;;;3.53;;
6173;SDS011;3120;48.796;9.796;2024-02-26T10:24:25;7.35;;;3.28;;
6173;SDS011;3120;48.796;9.796;2024-02-26T10:26:54;6.43;;;3.10;;
6173;SDS011;3120;48.796;9.796;2024-02-26T10:29:21;5.60;;;2.90;;
6173;SDS011;3120;48.796;9.796;2024-02-26T10:31:48;5.68;;;2.95;;
6173;SDS011;3120;48.796;9.796;2024-02-26T10:34:16;5.72;;;2.28;;
6173;SDS011;3120;48.796;9.796;2024-02-26T10:36:42;7.32;;;2.92;;
6173;SDS011;3120;48.796;9.796;2024-02-26T10:39:09;7.88;;;2.72;;
6173;SDS011;3120;48.796;9.796;2024-02-26T10:41:36;5.85;;;2.47;;
6173;SDS011;3120;48.796;9.796;2024-02-26T10:44:03;6.68;;;3.33;;
6173;SDS011;3120;48.796;9.796;2024-02-26T10:46:28;7.07;;;3.38;;
6173;SDS011;3120;48.796;9.796;2024-02-26T10:48:54;7.03;;;3.53;;
6173;SDS011;3120;48.796;9.796;2024-02-26T10:51:28;6.38;;;3.65;;
6173;SDS011;3120;48.796;9.796;2024-02-26T10:53:56;5.50;;;3.03;;
6173;SDS011;3120;48.796;9.796;2024-02-26T10:56:27;7.80;;;3.08;;
6173;SDS011;3120;48.796;9.796;2024-02-26T10:58:57;4.40;;;3.50;;
6173;SDS011;3120;48.796;9.796;2024-02-26T11:01:24;7.35;;;3.38;;
6173;SDS011;3120;48.796;9.796;2024-02-26T11:03:52;6.63;;;2.97;;
6173;SDS011;3120;48.796;9.796;2024-02-26T11:06:21;4.03;;;2.88;;
6173;SDS011;3120;48.796;9.796;2024-02-26T11:08:50;5.70;;;3.08;;
6173;SDS011;3120;48.796;9.796;2024-02-26T11:11:16;5.97;;;2.95;;
6173;SDS011;3120;48.796;9.796;2024-02-26T11:13:44;4.45;;;2.83;;
6173;SDS011;3120;48.796;9.796;2024-02-26T11:16:19;4.82;;;2.78;;
6173;SDS011;3120;48.796;9.796;2024-02-26T11:18:46;5.10;;;3.05;;
6173;SDS011;3120;48.796;9.796;2024-02-26T11:21:13;4.60;;;2.67;;
6173;SDS011;3120;48.796;9.796;2024-02-26T11:23:47;4.15;;;2.38;;
6173;SDS011;3120;48.796;9.796;2024-02-26T11:26:13;4.65;;;2.30;;
6173;SDS011;3120;48.796;9.796;2024-02-26T11:28:41;6.05;;;2.40;;
6173;SDS011;3120;48.796;9.796;2024-02-26T11:31:06;5.28;;;2.60;;
6173;SDS011;3120;48.796;9.796;2024-02-26T11:33:34;4.10;;;1.98;;
6173;SDS011;3120;48.796;9.796;2024-02-26T11:36:07;4.85;;;2.55;;
6173;SDS011;3120;48.796;9.796;2024-02-26T11:38:36;5.15;;;3.03;;
6173;SDS011;3120;48.796;9.796;2024-02-26T11:41:03;3.40;;;2.38;;
6173;SDS011;3120;48.796;9.796;2024-02-26T11:43:49;3.35;;;2.00;;
6173;SDS011;3120;48.796;9.796;2024-02-26T11:48:53;8.73;;;3.50;;
6173;SDS011;3120;48.796;9.796;2024-02-26T11:51:24;9.10;;;2.58;;
6173;SDS011;3120;48.796;9.796;2024-02-26T11:53:51;4.35;;;2.05;;
6173;SDS011;3120;48.796;9.796;2024-02-26T11:58:42;7.72;;;2.53;;
6173;SDS011;3120;48.796;9.796;2024-02-26T12:04:07;7.03;;;3.00;;
6173;SDS011;3120;48.796;9.796;2024-02-26T12:06:40;7.50;;;3.00;;
6173;SDS011;3120;48.796;9.796;2024-02-26T12:09:48;5.20;;;2.80;;
6173;SDS011;3120;48.796;9.796;2024-02-26T12:12:17;3.97;;;2.70;;
6173;SDS011;3120;48.796;9.796;2024-02-26T12:14:53;13.15;;;2.90;;
6173;SDS011;3120;48.796;9.796;2024-02-26T12:17:22;8.77;;;3.15;;
6173;SDS011;3120;48.796;9.796;2024-02-26T12:19:50;8.20;;;3.38;;
6173;SDS011;3120;48.796;9.796;2024-02-26T12:22:18;8.10;;;3.15;;
6173;SDS011;3120;48.796;9.796;2024-02-26T12:24:44;4.63;;;2.70;;
6173;SDS011;3120;48.796;9.796;2024-02-26T12:27:09;6.45;;;2.67;;
6173;SDS011;3120;48.796;9.796;2024-02-26T12:29:35;6.47;;;3.13;;
6173;SDS011;3120;48.796;9.796;2024-02-26T12:32:01;8.13;;;3.08;;
6173;SDS011;3120;48.796;9.796;2024-02-26T12:34:29;6.50;;;2.50;;
6173;SDS011;3120;48.796;9.796;2024-02-26T12:36:54;4.55;;;2.67;;
6173;SDS011;3120;48.796;9.796;2024-02-26T12:39:20;4.20;;;2.72;;
6173;SDS011;3120;48.796;9.796;2024-02-26T12:41:46;5.85;;;2.90;;
6173;SDS011;3120;48.796;9.796;2024-02-26T12:44:18;10.18;;;3.88;;
6173;SDS011;3120;48.796;9.796;2024-02-26T12:46:50;7.10;;;3.40;;
6173;SDS011;3120;48.796;9.796;2024-02-26T12:49:17;5.63;;;3.20;;
6173;SDS011;3120;48.796;9.796;2024-02-26T12:51:43;9.15;;;3.13;;
6173;SDS011;3120;48.796;9.796;2024-02-26T12:54:11;6.32;;;3.05;;
6173;SDS011;3120;48.796;9.796;2024-02-26T12:56:40;7.28;;;3.67;;
6173;SDS011;3120;48.796;9.796;2024-02-26T12:59:19;7.55;;;4.07;;
6173;SDS011;3120;48.796;9.796;2024-02-26T13:01:45;5.47;;;2.90;;
6173;SDS011;3120;48.796;9.796;2024-02-26T13:04:15;7.15;;;3.58;;
6173;SDS011;3120;48.796;9.796;2024-02-26T13:06:43;8.60;;;3.22;;
6173;SDS011;3120;48.796;9.796;2024-02-26T13:09:16;4.22;;;2.97;;
6173;SDS011;3120;48.796;9.796;2024-02-26T13:11:43;6.00;;;3.38;;
6173;SDS011;3120;48.796;9.796;2024-02-26T13:14:18;5.53;;;3.38;;
6173;SDS011;3120;48.796;9.796;2024-02-26T13:16:56;5.55;;;3.45;;
6173;SDS011;3120;48.796;9.796;2024-02-26T13:19:23;7.20;;;4.07;;
6173;SDS011;3120;48.796;9.796;2024-02-26T13:21:49;10.93;;;3.85;;
6173;SDS011;3120;48.796;9.796;2024-02-26T13:24:14;6.05;;;3.30;;
6173;SDS011;3120;48.796;9.796;2024-02-26T13:26:40;9.60;;;3.80;;
6173;SDS011;3120;48.796;9.796;2024-02-26T13:29:06;6.43;;;3.40;;
6173;SDS011;3120;48.796;9.796;2024-02-26T13:31:31;13.98;;;3.80;;
6173;SDS011;3120;48.796;9.796;2024-02-26T13:34:09;8.38;;;4.05;;
6173;SDS011;3120;48.796;9.796;2024-02-26T13:36:35;7.10;;;3.63;;
6173;SDS011;3120;48.796;9.796;2024-02-26T13:39:04;11.50;;;4.32;;
6173;SDS011;3120;48.796;9.796;2024-02-26T13:41:30;9.07;;;4.22;;
6173;SDS011;3120;48.796;9.796;2024-02-26T13:43:55;55.35;;;23.33;;
6173;SDS011;3120;48.796;9.796;2024-02-26T13:46:22;36.60;;;19.60;;
6173;SDS011;3120;48.796;9.796;2024-02-26T13:48:48;29.67;;;14.45;;
6173;SDS011;3120;48.796;9.796;2024-02-26T13:51:13;50.75;;;23.83;;
6173;SDS011;3120;48.796;9.796;2024-02-26T13:53:39;33.42;;;17.70;;
6173;SDS011;3120;48.796;9.796;2024-02-26T13:56:05;28.40;;;13.23;;
6173;SDS011;3120;48.796;9.796;2024-02-26T13:58:32;59.55;;;26.42;;
6173;SDS011;3120;48.796;9.796;2024-02-26T14:00:57;45.60;;;20.73;;
6173;SDS011;3120;48.796;9.796;2024-02-26T14:03:24;120.53;;;48.90;;
6173;SDS011;3120;48.796;9.796;2024-02-26T14:05:50;46.08;;;19.85;;
6173;SDS011;3120;48.796;9.796;2024-02-26T14:08:15;56.75;;;26.23;;
6173;SDS011;3120;48.796;9.796;2024-02-26T14:10:41;62.90;;;26.33;;
6173;SDS011;3120;48.796;9.796;2024-02-26T14:13:07;48.53;;;23.65;;
6173;SDS011;3120;48.796;9.796;2024-02-26T14:15:33;13.07;;;6.72;;
6173;SDS011;3120;48.796;9.796;2024-02-26T14:18:00;10.23;;;5.25;;
6173;SDS011;3120;48.796;9.796;2024-02-26T14:20:28;15.98;;;6.80;;
6173;SDS011;3120;48.796;9.796;2024-02-26T14:22:53;14.73;;;6.25;;
6173;SDS011;3120;48.796;9.796;2024-02-26T14:25:19;14.48;;;6.00;;
6173;SDS011;3120;48.796;9.796;2024-02-26T14:27:49;13.23;;;6.38;;
6173;SDS011;3120;48.796;9.796;2024-02-26T14:30:14;18.00;;;6.88;;
6173;SDS011;3120;48.796;9.796;2024-02-26T14:32:40;12.25;;;6.40;;
6173;SDS011;3120;48.796;9.796;2024-02-26T14:35:06;12.48;;;6.63;;
6173;SDS011;3120;48.796;9.796;2024-02-26T14:37:34;12.98;;;6.43;;
6173;SDS011;3120;48.796;9.796;2024-02-26T14:40:00;13.10;;;7.07;;
6173;SDS011;3120;48.796;9.796;2024-02-26T14:42:26;14.48;;;8.27;;
6173;SDS011;3120;48.796;9.796;2024-02-26T14:44:51;13.27;;;6.90;;
6173;SDS011;3120;48.796;9.796;2024-02-26T14:47:17;11.20;;;6.20;;
6173;SDS011;3120;48.796;9.796;2024-02-26T14:49:42;12.10;;;5.93;;
6173;SDS011;3120;48.796;9.796;2024-02-26T14:52:08;11.95;;;6.00;;
6173;SDS011;3120;48.796;9.796;2024-02-26T14:54:34;11.80;;;6.32;;
6173;SDS011;3120;48.796;9.796;2024-02-26T14:57:03;18.35;;;5.60;;
6173;SDS011;3120;48.796;9.796;2024-02-26T14:59:30;14.60;;;6.35;;
6173;SDS011;3120;48.796;9.796;2024-02-26T15:01:56;10.93;;;4.82;;
6173;SDS011;3120;48.796;9.796;2024-02-26T15:04:22;12.55;;;4.60;;
6173;SDS011;3120;48.796;9.796;2024-02-26T15:06:48;11.10;;;5.07;;
6173;SDS011;3120;48.796;9.796;2024-02-26T15:09:13;11.32;;;3.97;;
6173;SDS011;3120;48.796;9.796;2024-02-26T15:11:39;8.38;;;3.60;;
6173;SDS011;3120;48.796;9.796;2024-02-26T15:14:06;12.63;;;3.80;;
6173;SDS011;3120;48.796;9.796;2024-02-26T15:16:32;5.72;;;3.28;;
6173;SDS011;3120;48.796;9.796;2024-02-26T15:18:57;7.15;;;2.80;;
6173;SDS011;3120;48.796;9.796;2024-02-26T15:21:23;6.82;;;2.67;;
6173;SDS011;3120;48.796;9.796;2024-02-26T15:23:49;4.65;;;2.40;;
6173;SDS011;3120;48.796;9.796;2024-02-26T15:26:15;4.78;;;2.42;;
6173;SDS011;3120;48.796;9.796;2024-02-26T15:28:42;6.38;;;2.40;;
6173;SDS011;3120;48.796;9.796;2024-02-26T15:31:08;5.95;;;2.45;;
6173;SDS011;3120;48.796;9.796;2024-02-26T15:33:33;6.90;;;2.40;;
6173;SDS011;3120;48.796;9.796;2024-02-26T15:35:59;5.10;;;2.42;;
6173;SDS011;3120;48.796;9.796;2024-02-26T15:38:24;4.97;;;1.73;;
6173;SDS011;3120;48.796;9.796;2024-02-26T15:40:50;3.83;;;1.88;;
6173;SDS011;3120;48.796;9.796;2024-02-26T15:43:15;6.22;;;2.13;;
6173;SDS011;3120;48.796;9.796;2024-02-26T15:45:41;3.28;;;2.08;;
6173;SDS011;3120;48.796;9.796;2024-02-26T15:48:07;3.40;;;2.10;;
6173;SDS011;3120;48.796;9.796;2024-02-26T15:50:32;14.43;;;2.33;;
6173;SDS011;3120;48.796;9.796;2024-02-26T15:52:58;6.18;;;2.30;;
6173;SDS011;3120;48.796;9.796;2024-02-26T15:55:24;3.90;;;2.30;;
6173;SDS011;3120;48.796;9.796;2024-02-26T15:57:49;3.20;;;1.70;;
6173;SDS011;3120;48.796;9.796;2024-02-26T16:00:15;8.45;;;2.38;;
6173;SDS011;3120;48.796;9.796;2024-02-26T16:02:41;5.00;;;2.30;;
6173;SDS011;3120;48.796;9.796;2024-02-26T16:05:07;12.82;;;2.85;;
6173;SDS011;3120;48.796;9.796;2024-02-26T16:07:47;9.52;;;2.72;;
6173;SDS011;3120;48.796;9.796;2024-02-26T16:10:16;7.22;;;2.97;;
6173;SDS011;3120;48.796;9.796;2024-02-26T16:12:44;7.35;;;3.22;;
6173;SDS011;3120;48.796;9.796;2024-02-26T16:15:24;8.05;;;3.33;;
6173;SDS011;3120;48.796;9.796;2024-02-26T16:17:51;4.40;;;2.95;;
6173;SDS011;3120;48.796;9.796;2024-02-26T16:20:20;9.23;;;3.15;;
6173;SDS011;3120;48.796;9.796;2024-02-26T16:22:47;7.75;;;2.80;;
6173;SDS011;3120;48.796;9.796;2024-02-26T16:25:13;4.95;;;2.80;;
6173;SDS011;3120;48.796;9.796;2024-02-26T16:27:39;8.77;;;2.50;;
6173;SDS011;3120;48.796;9.796;2024-02-26T16:30:08;8.98;;;2.70;;
6173;SDS011;3120;48.796;9.796;2024-02-26T16:32:35;6.82;;;2.95;;
6173;SDS011;3120;48.796;9.796;2024-02-26T16:35:05;4.88;;;2.95;;
6173;SDS011;3120;48.796;9.796;2024-02-26T16:37:32;11.25;;;3.17;;
6173;SDS011;3120;48.796;9.796;2024-02-26T16:39:58;8.88;;;2.70;;
6173;SDS011;3120;48.796;9.796;2024-02-26T16:42:25;6.78;;;3.28;;
6173;SDS011;3120;48.796;9.796;2024-02-26T16:44:51;6.05;;;3.10;;
6173;SDS011;3120;48.796;9.796;2024-02-26T16:47:17;7.65;;;3.83;;
6173;SDS011;3120;48.796;9.796;2024-02-26T16:49:43;10.70;;;4.10;;
6173;SDS011;3120;48.796;9.796;2024-02-26T16:52:10;9.80;;;3.67;;
6173;SDS011;3120;48.796;9.796;2024-02-26T16:54:36;9.75;;;5.05;;
6173;SDS011;3120;48.796;9.796;2024-02-26T16:57:02;11.55;;;5.15;;
6173;SDS011;3120;48.796;9.796;2024-02-26T16:59:28;6.72;;;4.13;;
6173;SDS011;3120;48.796;9.796;2024-02-26T17:01:54;9.70;;;5.10;;
6173;SDS011;3120;48.796;9.796;2024-02-26T17:04:21;7.88;;;4.63;;
6173;SDS011;3120;48.796;9.796;2024-02-26T17:06:47;16.77;;;5.25;;
6173;SDS011;3120;48.796;9.796;2024-02-26T17:09:14;10.70;;;4.20;;
6173;SDS011;3120;48.796;9.796;2024-02-26T17:11:43;10.35;;;5.13;;
6173;SDS011;3120;48.796;9.796;2024-02-26T17:14:11;9.95;;;5.50;;
6173;SDS011;3120;48.796;9.796;2024-02-26T17:16:37;12.40;;;5.30;;
6173;SDS011;3120;48.796;9.796;2024-02-26T17:19:03;12.82;;;5.53;;
6173;SDS011;3120;48.796;9.796;2024-02-26T17:21:29;12.00;;;5.43;;
6173;SDS011;3120;48.796;9.796;2024-02-26T17:23:55;10.95;;;5.45;;
6173;SDS011;3120;48.796;9.796;2024-02-26T17:26:21;16.30;;;5.95;;
6173;SDS011;3120;48.796;9.796;2024-02-26T17:28:52;18.35;;;6.43;;
6173;SDS011;3120;48.796;9.796;2024-02-26T17:38:56;10.73;;;5.50;;
6173;SDS011;3120;48.796;9.796;2024-02-26T17:41:25;13.52;;;4.93;;
6173;SDS011;3120;48.796;9.796;2024-02-26T17:44:37;12.48;;;5.70;;
6173;SDS011;3120;48.796;9.796;2024-02-26T17:47:09;16.55;;;7.78;;
6173;SDS011;3120;48.796;9.796;2024-02-26T17:49:42;16.77;;;7.25;;
6173;SDS011;3120;48.796;9.796;2024-02-26T17:52:08;14.77;;;8.38;;
6173;SDS011;3120;48.796;9.796;2024-02-26T17:54:36;24.40;;;8.75;;
6173;SDS011;3120;48.796;9.796;2024-02-26T17:57:31;18.30;;;9.00;;
6173;SDS011;3120;48.796;9.796;2024-02-26T18:00:00;14.95;;;7.13;;
6173;SDS011;3120;48.796;9.796;2024-02-26T18:02:26;13.20;;;6.18;;
6173;SDS011;3120;48.796;9.796;2024-02-26T18:04:52;13.90;;;6.40;;
6173;SDS011;3120;48.796;9.796;2024-02-26T18:07:18;17.45;;;6.32;;
6173;SDS011;3120;48.796;9.796;2024-02-26T18:09:43;20.88;;;7.18;;
6173;SDS011;3120;48.796;9.796;2024-02-26T18:12:09;14.30;;;7.38;;
6173;SDS011;3120;48.796;9.796;2024-02-26T18:14:35;22.27;;;9.82;;
6173;SDS011;3120;48.796;9.796;2024-02-26T18:17:00;23.30;;;10.10;;
6173;SDS011;3120;48.796;9.796;2024-02-26T18:19:26;17.92;;;11.25;;
6173;SDS011;3120;48.796;9.796;2024-02-26T18:21:52;30.10;;;13.52;;
6173;SDS011;3120;48.796;9.796;2024-02-26T18:24:17;17.88;;;7.90;;
6173;SDS011;3120;48.796;9.796;2024-02-26T18:26:43;17.52;;;7.22;;
6173;SDS011;3120;48.796;9.796;2024-02-26T18:29:09;16.20;;;8.27;;
6173;SDS011;3120;48.796;9.796;2024-02-26T18:31:34;18.30;;;7.90;;
6173;SDS011;3120;48.796;9.796;2024-02-26T18:34:00;13.98;;;7.47;;
6173;SDS011;3120;48.796;9.796;2024-02-26T18:36:26;16.38;;;7.55;;
6173;SDS011;3120;48.796;9.796;2024-02-26T18:38:52;20.52;;;9.15;;
6173;SDS011;3120;48.796;9.796;2024-02-26T18:41:18;20.42;;;9.00;;
6173;SDS011;3120;48.796;9.796;2024-02-26T18:43:51;26.13;;;10.73;;
6173;SDS011;3120;48.796;9.796;2024-02-26T18:46:17;23.92;;;8.60;;
6173;SDS011;3120;48.796;9.796;2024-02-26T18:48:43;13.60;;;7.50;;
6173;SDS011;3120;48.796;9.796;2024-02-26T18:51:09;15.27;;;5.88;;
6173;SDS011;3120;48.796;9.796;2024-02-26T18:53:36;15.02;;;6.13;;
6173;SDS011;3120;48.796;9.796;2024-02-26T18:56:06;13.15;;;5.80;;
6173;SDS011;3120;48.796;9.796;2024-02-26T18:58:32;10.18;;;5.75;;
6173;SDS011;3120;48.796;9.796;2024-02-26T19:00:58;10.02;;;5.63;;
6173;SDS011;3120;48.796;9.796;2024-02-26T19:03:23;15.77;;;6.35;;
6173;SDS011;3120;48.796;9.796;2024-02-26T19:05:49;16.63;;;6.55;;
6173;SDS011;3120;48.796;9.796;2024-02-26T19:08:15;14.05;;;6.38;;
6173;SDS011;3120;48.796;9.796;2024-02-26T19:10:41;12.07;;;5.88;;
6173;SDS011;3120;48.796;9.796;2024-02-26T19:13:08;15.00;;;5.68;;
6173;SDS011;3120;48.796;9.796;2024-02-26T19:15:35;16.67;;;5.88;;
6173;SDS011;3120;48.796;9.796;2024-02-26T19:18:03;8.20;;;4.78;;
6173;SDS011;3120;48.796;9.796;2024-02-26T19:20:31;13.60;;;5.93;;
6173;SDS011;3120;48.796;9.796;2024-02-26T19:22:56;14.85;;;7.72;;
6173;SDS011;3120;48.796;9.796;2024-02-26T19:25:22;15.68;;;6.32;;
6173;SDS011;3120;48.796;9.796;2024-02-26T19:27:48;8.98;;;4.82;;
6173;SDS011;3120;48.796;9.796;2024-02-26T19:30:17;14.25;;;6.45;;
6173;SDS011;3120;48.796;9.796;2024-02-26T19:32:45;12.63;;;5.65;;
6173;SDS011;3120;48.796;9.796;2024-02-26T19:35:11;9.50;;;5.38;;
6173;SDS011;3120;48.796;9.796;2024-02-26T19:37:37;9.93;;;5.25;;
6173;SDS011;3120;48.796;9.796;2024-02-26T19:40:02;15.75;;;8.52;;
6173;SDS011;3120;48.796;9.796;2024-02-26T19:42:29;14.90;;;5.88;;
6173;SDS011;3120;48.796;9.796;2024-02-26T19:44:55;11.13;;;5.68;;
6173;SDS011;3120;48.796;9.796;2024-02-26T19:47:21;15.75;;;6.85;;
6173;SDS011;3120;48.796;9.796;2024-02-26T19:49:47;12.05;;;5.90;;
6173;SDS011;3120;48.796;9.796;2024-02-26T19:52:13;18.95;;;7.70;;
6173;SDS011;3120;48.796;9.796;2024-02-26T19:54:52;13.30;;;7.15;;
6173;SDS011;3120;48.796;9.796;2024-02-26T19:57:23;11.45;;;6.50;;
6173;SDS011;3120;48.796;9.796;2024-02-26T20:00:01;14.57;;;7.10;;
6173;SDS011;3120;48.796;9.796;2024-02-26T20:02:36;11.18;;;6.07;;
6173;SDS011;3120;48.796;9.796;2024-02-26T20:05:02;11.63;;;6.10;;
6173;SDS011;3120;48.796;9.796;2024-02-26T20:07:28;9.55;;;5.75;;
6173;SDS011;3120;48.796;9.796;2024-02-26T20:09:59;13.50;;;5.57;;
6173;SDS011;3120;48.796;9.796;2024-02-26T20:12:44;11.95;;;5.55;;
6173;SDS011;3120;48.796;9.796;2024-02-26T20:15:12;13.02;;;4.88;;
6173;SDS011;3120;48.796;9.796;2024-02-26T20:17:38;9.02;;;4.63;;
6173;SDS011;3120;48.796;9.796;2024-02-26T20:20:15;6.85;;;4.10;;
6173;SDS011;3120;48.796;9.796;2024-02-26T20:22:42;10.85;;;5.47;;
6173;SDS011;3120;48.796;9.796;2024-02-26T20:25:08;18.83;;;6.20;;
6173;SDS011;3120;48.796;9.796;2024-02-26T20:27:35;25.05;;;10.10;;
6173;SDS011;3120;48.796;9.796;2024-02-26T20:30:01;13.10;;;6.53;;
6173;SDS011;3120;48.796;9.796;2024-02-26T20:32:27;20.02;;;8.60;;
6173;SDS011;3120;48.796;9.796;2024-02-26T20:34:54;13.43;;;6.97;;
6173;SDS011;3120;48.796;9.796;2024-02-26T20:37:20;10.70;;;6.32;;
6173;SDS011;3120;48.796;9.796;2024-02-26T20:39:47;16.10;;;7.70;;
6173;SDS011;3120;48.796;9.796;2024-02-26T20:42:13;14.75;;;6.63;;
6173;SDS011;3120;48.796;9.796;2024-02-26T20:44:39;18.67;;;7.47;;
6173;SDS011;3120;48.796;9.796;2024-02-26T20:47:04;13.70;;;7.53;;
6173;SDS011;3120;48.796;9.796;2024-02-26T20:49:30;21.55;;;7.95;;
6173;SDS011;3120;48.796;9.796;2024-02-26T20:51:56;19.42;;;7.53;;
6173;SDS011;3120;48.796;9.796;2024-02-26T20:54:33;19.08;;;7.93;;
6173;SDS011;3120;48.796;9.796;2024-02-26T20:56:59;16.20;;;7.63;;
6173;SDS011;3120;48.796;9.796;2024-02-26T20:59:27;14.80;;;7.45;;
6173;SDS011;3120;48.796;9.796;2024-02-26T21:01:53;12.50;;;7.72;;
6173;SDS011;3120;48.796;9.796;2024-02-26T21:04:18;15.52;;;7.93;;
6173;SDS011;3120;48.796;9.796;2024-02-26T21:06:44;15.75;;;8.00;;
6173;SDS011;3120;48.796;9.796;2024-02-26T21:09:13;11.27;;;6.85;;
6173;SDS011;3120;48.796;9.796;2024-02-26T21:11:38;17.42;;;7.63;;
6173;SDS011;3120;48.796;9.796;2024-02-26T21:14:05;15.02;;;7.78;;
6173;SDS011;3120;48.796;9.796;2024-02-26T21:16:32;14.02;;;7.85;;
6173;SDS011;3120;48.796;9.796;2024-02-26T21:18:57;12.20;;;6.30;;
6173;SDS011;3120;48.796;9.796;2024-02-26T21:21:24;10.63;;;6.55;;
6173;SDS011;3120;48.796;9.796;2024-02-26T21:23:53;15.73;;;7.13;;
6173;SDS011;3120;48.796;9.796;2024-02-26T21:26:18;16.60;;;7.40;;
6173;SDS011;3120;48.796;9.796;2024-02-26T21:28:44;12.25;;;5.45;;
6173;SDS011;3120;48.796;9.796;2024-02-26T21:31:10;8.15;;;4.82;;
6173;SDS011;3120;48.796;9.796;2024-02-26T21:33:35;9.88;;;4.57;;
6173;SDS011;3120;48.796;9.796;2024-02-26T21:36:01;9.68;;;4.85;;
6173;SDS011;3120;48.796;9.796;2024-02-26T21:38:26;15.10;;;5.78;;
6173;SDS011;3120;48.796;9.796;2024-02-26T21:40:52;13.30;;;5.93;;
6173;SDS011;3120;48.796;9.796;2024-02-26T21:43:18;11.20;;;5.68;;
6173;SDS011;3120;48.796;9.796;2024-02-26T21:45:43;12.18;;;6.38;;
6173;SDS011;3120;48.796;9.796;2024-02-26T21:48:09;12.27;;;6.43;;